sensor_id;sensor_type;location;lat;lon;timestamp;P1;durP1;ratioP1;P2;durP2;ratioP2
20154;SDS011;10238;49.556;10.956;2023-04-24T00:00:19;3.30;;;3.10;;
20154;SDS011;10238;49.556;10.956;2023-04-24T00:03:07;3.47;;;3.25;;
20154;SDS011;10238;49.556;10.956;2023-04-24T00:05:55;2.78;;;2.58;;
20154;SDS011;10238;49.556;10.956;2023-04-24T00:08:44;2.72;;;2.60;;
20154;SDS011;10238;49.556;10.956;2023-04-24T00:11:33;4.00;;;3.47;;
20154;SDS011;10238;49.556;10.956;2023-04-24T00:14:21;3.35;;;3.10;;
20154;SDS011;10238;49.556;10.956;2023-04-24T00:17:08;3.30;;;3.10;;
20154;SDS011;10238;49.556;10.956;2023-04-24T00:19:56;3.47;;;3.28;;
20154;SDS011;10238;49.556;10.956;2023-04-24T00:22:44;3.20;;;3.00;;
20154;SDS011;10238;49.556;10.956;2023-04-24T00:25:32;4.15;;;3.70;;
20154;SDS011;10238;49.556;10.956;2023-04-24T00:28:21;4.65;;;2.67;;
20154;SDS011;10238;49.556;10.956;2023-04-24T00:31:09;4.18;;;3.88;;
20154;SDS011;10238;49.556;10.956;2023-04-24T00:33:57;3.42;;;3.15;;
20154;SDS011;10238;49.556;10.956;2023-04-24T00:36:45;3.72;;;3.42;;
20154;SDS011;10238;49.556;10.956;2023-04-24T00:39:34;3.83;;;3.63;;
20154;SDS011;10238;49.556;10.956;2023-04-24T00:42:22;2.85;;;2.65;;
20154;SDS011;10238;49.556;10.956;2023-04-24T00:45:11;3.38;;;3.08;;
20154;SDS011;10238;49.556;10.956;2023-04-24T00:47:59;2.83;;;2.63;;
20154;SDS011;10238;49.556;10.956;2023-04-24T00:50:48;3.35;;;3.15;;
20154;SDS011;10238;49.556;10.956;2023-04-24T00:53:35;4.05;;;3.42;;
20154;SDS011;10238;49.556;10.956;2023-04-24T00:56:23;3.03;;;2.85;;
20154;SDS011;10238;49.556;10.956;2023-04-24T00:59:11;2.30;;;2.10;;
20154;SDS011;10238;49.556;10.956;2023-04-24T01:02:01;2.33;;;2.22;;
20154;SDS011;10238;49.556;10.956;2023-04-24T01:04:50;2.22;;;2.03;;
20154;SDS011;10238;49.556;10.956;2023-04-24T01:07:38;2.42;;;2.22;;
20154;SDS011;10238;49.556;10.956;2023-04-24T01:10:29;2.50;;;2.30;;
20154;SDS011;10238;49.556;10.956;2023-04-24T01:13:19;2.95;;;2.10;;
20154;SDS011;10238;49.556;10.956;2023-04-24T01:16:07;2.38;;;2.25;;
20154;SDS011;10238;49.556;10.956;2023-04-24T01:18:57;2.85;;;2.65;;
20154;SDS011;10238;49.556;10.956;2023-04-24T01:21:45;2.63;;;2.22;;
20154;SDS011;10238;49.556;10.956;2023-04-24T01:24:38;3.00;;;2.80;;
20154;SDS011;10238;49.556;10.956;2023-04-24T01:27:27;3.13;;;2.80;;
20154;SDS011;10238;49.556;10.956;2023-04-24T01:30:16;2.70;;;2.50;;
20154;SDS011;10238;49.556;10.956;2023-04-24T01:33:04;2.58;;;2.38;;
20154;SDS011;10238;49.556;10.956;2023-04-24T01:35:52;2.40;;;1.70;;
20154;SDS011;10238;49.556;10.956;2023-04-24T01:38:41;3.65;;;2.90;;
20154;SDS011;10238;49.556;10.956;2023-04-24T01:41:30;3.30;;;2.90;;
20154;SDS011;10238;49.556;10.956;2023-04-24T01:44:18;2.75;;;1.80;;
20154;SDS011;10238;49.556;10.956;2023-04-24T01:47:06;3.70;;;2.90;;
20154;SDS011;10238;49.556;10.956;2023-04-24T01:49:54;2.50;;;2.30;;
20154;SDS011;10238;49.556;10.956;2023-04-24T01:52:41;2.10;;;1.95;;
20154;SDS011;10238;49.556;10.956;2023-04-24T01:55:29;2.10;;;2.00;;
20154;SDS011;10238;49.556;10.956;2023-04-24T01:58:18;3.50;;;3.25;;
20154;SDS011;10238;49.556;10.956;2023-04-24T02:01:06;2.50;;;2.30;;
20154;SDS011;10238;49.556;10.956;2023-04-24T02:03:54;1.67;;;1.58;;
20154;SDS011;10238;49.556;10.956;2023-04-24T02:06:42;1.50;;;1.40;;
20154;SDS011;10238;49.556;10.956;2023-04-24T02:09:30;1.70;;;1.60;;
20154;SDS011;10238;49.556;10.956;2023-04-24T02:12:18;1.80;;;1.70;;
20154;SDS011;10238;49.556;10.956;2023-04-24T02:15:08;1.80;;;1.70;;
20154;SDS011;10238;49.556;10.956;2023-04-24T02:17:57;2.28;;;1.90;;
20154;SDS011;10238;49.556;10.956;2023-04-24T02:20:44;2.80;;;2.60;;
20154;SDS011;10238;49.556;10.956;2023-04-24T02:23:33;1.80;;;1.70;;
20154;SDS011;10238;49.556;10.956;2023-04-24T02:26:20;2.15;;;1.90;;
20154;SDS011;10238;49.556;10.956;2023-04-24T02:29:08;1.88;;;1.67;;
20154;SDS011;10238;49.556;10.956;2023-04-24T02:31:57;1.95;;;1.85;;
20154;SDS011;10238;49.556;10.956;2023-04-24T02:34:47;2.55;;;1.67;;
20154;SDS011;10238;49.556;10.956;2023-04-24T02:37:35;2.35;;;2.00;;
20154;SDS011;10238;49.556;10.956;2023-04-24T02:40:22;2.08;;;1.98;;
20154;SDS011;10238;49.556;10.956;2023-04-24T02:43:10;1.88;;;1.77;;
20154;SDS011;10238;49.556;10.956;2023-04-24T02:45:57;1.90;;;1.80;;
20154;SDS011;10238;49.556;10.956;2023-04-24T02:48:47;1.92;;;1.83;;
20154;SDS011;10238;49.556;10.956;2023-04-24T02:51:35;1.80;;;1.70;;
20154;SDS011;10238;49.556;10.956;2023-04-24T02:54:26;2.03;;;1.88;;
20154;SDS011;10238;49.556;10.956;2023-04-24T02:57:14;2.15;;;1.95;;
20154;SDS011;10238;49.556;10.956;2023-04-24T03:00:02;2.00;;;1.80;;
20154;SDS011;10238;49.556;10.956;2023-04-24T03:02:52;2.00;;;1.90;;
20154;SDS011;10238;49.556;10.956;2023-04-24T03:05:42;2.00;;;1.90;;
20154;SDS011;10238;49.556;10.956;2023-04-24T03:08:30;1.90;;;1.80;;
20154;SDS011;10238;49.556;10.956;2023-04-24T03:11:17;2.35;;;2.25;;
20154;SDS011;10238;49.556;10.956;2023-04-24T03:14:05;2.22;;;2.13;;
20154;SDS011;10238;49.556;10.956;2023-04-24T03:16:52;2.80;;;2.55;;
20154;SDS011;10238;49.556;10.956;2023-04-24T03:19:42;1.80;;;1.80;;
20154;SDS011;10238;49.556;10.956;2023-04-24T03:22:31;3.00;;;1.50;;
20154;SDS011;10238;49.556;10.956;2023-04-24T03:25:19;1.20;;;1.20;;
20154;SDS011;10238;49.556;10.956;2023-04-24T03:28:07;2.25;;;2.15;;
20154;SDS011;10238;49.556;10.956;2023-04-24T03:30:55;2.65;;;2.10;;
20154;SDS011;10238;49.556;10.956;2023-04-24T03:33:42;2.03;;;1.92;;
20154;SDS011;10238;49.556;10.956;2023-04-24T03:36:29;3.22;;;2.97;;
20154;SDS011;10238;49.556;10.956;2023-04-24T03:39:19;3.67;;;3.42;;
20154;SDS011;10238;49.556;10.956;2023-04-24T03:42:07;1.70;;;1.60;;
20154;SDS011;10238;49.556;10.956;2023-04-24T03:44:54;1.52;;;1.50;;
20154;SDS011;10238;49.556;10.956;2023-04-24T03:47:42;1.60;;;1.60;;
20154;SDS011;10238;49.556;10.956;2023-04-24T03:50:29;2.78;;;2.67;;
20154;SDS011;10238;49.556;10.956;2023-04-24T03:53:17;1.58;;;1.48;;
20154;SDS011;10238;49.556;10.956;2023-04-24T03:56:06;4.20;;;2.55;;
20154;SDS011;10238;49.556;10.956;2023-04-24T03:58:54;1.83;;;1.83;;
20154;SDS011;10238;49.556;10.956;2023-04-24T04:01:42;2.15;;;2.05;;
20154;SDS011;10238;49.556;10.956;2023-04-24T04:04:31;1.58;;;1.48;;
20154;SDS011;10238;49.556;10.956;2023-04-24T04:07:19;1.55;;;1.50;;
20154;SDS011;10238;49.556;10.956;2023-04-24T04:10:07;2.00;;;1.90;;
20154;SDS011;10238;49.556;10.956;2023-04-24T04:12:56;1.80;;;1.70;;
20154;SDS011;10238;49.556;10.956;2023-04-24T04:15:44;2.03;;;1.92;;
20154;SDS011;10238;49.556;10.956;2023-04-24T04:18:32;2.03;;;1.83;;
20154;SDS011;10238;49.556;10.956;2023-04-24T04:21:20;2.92;;;2.25;;
20154;SDS011;10238;49.556;10.956;2023-04-24T04:24:08;2.00;;;1.90;;
20154;SDS011;10238;49.556;10.956;2023-04-24T04:26:56;2.28;;;2.03;;
20154;SDS011;10238;49.556;10.956;2023-04-24T04:29:45;2.10;;;2.00;;
20154;SDS011;10238;49.556;10.956;2023-04-24T04:32:32;2.50;;;2.30;;
20154;SDS011;10238;49.556;10.956;2023-04-24T04:35:20;1.92;;;1.83;;
20154;SDS011;10238;49.556;10.956;2023-04-24T04:38:08;2.10;;;2.00;;
20154;SDS011;10238;49.556;10.956;2023-04-24T04:40:56;2.50;;;2.30;;
20154;SDS011;10238;49.556;10.956;2023-04-24T04:43:44;2.40;;;2.30;;
20154;SDS011;10238;49.556;10.956;2023-04-24T04:46:33;2.63;;;2.25;;
20154;SDS011;10238;49.556;10.956;2023-04-24T04:49:23;2.20;;;2.10;;
20154;SDS011;10238;49.556;10.956;2023-04-24T04:52:11;1.95;;;1.63;;
20154;SDS011;10238;49.556;10.956;2023-04-24T04:54:58;1.70;;;1.60;;
20154;SDS011;10238;49.556;10.956;2023-04-24T04:57:46;2.10;;;1.90;;
20154;SDS011;10238;49.556;10.956;2023-04-24T05:00:34;2.15;;;1.70;;
20154;SDS011;10238;49.556;10.956;2023-04-24T05:03:24;2.38;;;2.10;;
20154;SDS011;10238;49.556;10.956;2023-04-24T05:06:12;1.75;;;1.65;;
20154;SDS011;10238;49.556;10.956;2023-04-24T05:09:00;2.00;;;1.90;;
20154;SDS011;10238;49.556;10.956;2023-04-24T05:11:48;1.80;;;1.70;;
20154;SDS011;10238;49.556;10.956;2023-04-24T05:14:36;4.50;;;2.05;;
20154;SDS011;10238;49.556;10.956;2023-04-24T05:17:24;2.70;;;1.90;;
20154;SDS011;10238;49.556;10.956;2023-04-24T05:20:13;2.53;;;1.67;;
20154;SDS011;10238;49.556;10.956;2023-04-24T05:23:01;1.63;;;1.50;;
20154;SDS011;10238;49.556;10.956;2023-04-24T05:25:48;1.85;;;1.73;;
20154;SDS011;10238;49.556;10.956;2023-04-24T05:28:36;1.55;;;1.42;;
20154;SDS011;10238;49.556;10.956;2023-04-24T05:31:24;2.15;;;1.70;;
20154;SDS011;10238;49.556;10.956;2023-04-24T05:34:11;2.28;;;1.70;;
20154;SDS011;10238;49.556;10.956;2023-04-24T05:37:01;1.55;;;1.45;;
20154;SDS011;10238;49.556;10.956;2023-04-24T05:39:49;1.58;;;1.48;;
20154;SDS011;10238;49.556;10.956;2023-04-24T05:42:36;1.90;;;1.70;;
20154;SDS011;10238;49.556;10.956;2023-04-24T05:45:24;1.73;;;1.50;;
20154;SDS011;10238;49.556;10.956;2023-04-24T05:48:12;1.60;;;1.50;;
20154;SDS011;10238;49.556;10.956;2023-04-24T05:51:00;4.88;;;1.98;;
20154;SDS011;10238;49.556;10.956;2023-04-24T05:53:48;1.55;;;1.45;;
20154;SDS011;10238;49.556;10.956;2023-04-24T05:56:36;1.60;;;1.50;;
20154;SDS011;10238;49.556;10.956;2023-04-24T05:59:27;2.00;;;1.65;;
20154;SDS011;10238;49.556;10.956;2023-04-24T06:02:15;1.58;;;1.48;;
20154;SDS011;10238;49.556;10.956;2023-04-24T06:05:03;1.60;;;1.50;;
20154;SDS011;10238;49.556;10.956;2023-04-24T06:07:51;2.25;;;1.73;;
20154;SDS011;10238;49.556;10.956;2023-04-24T06:10:41;1.75;;;1.60;;
20154;SDS011;10238;49.556;10.956;2023-04-24T06:13:28;1.65;;;1.55;;
20154;SDS011;10238;49.556;10.956;2023-04-24T06:16:16;2.22;;;1.60;;
20154;SDS011;10238;49.556;10.956;2023-04-24T06:19:04;2.15;;;1.65;;
20154;SDS011;10238;49.556;10.956;2023-04-24T06:21:51;2.00;;;1.80;;
20154;SDS011;10238;49.556;10.956;2023-04-24T06:24:39;2.97;;;1.55;;
20154;SDS011;10238;49.556;10.956;2023-04-24T06:27:28;2.15;;;1.65;;
20154;SDS011;10238;49.556;10.956;2023-04-24T06:30:16;2.60;;;1.60;;
20154;SDS011;10238;49.556;10.956;2023-04-24T06:33:03;1.77;;;1.58;;
20154;SDS011;10238;49.556;10.956;2023-04-24T06:36:05;1.67;;;1.55;;
20154;SDS011;10238;49.556;10.956;2023-04-24T06:38:53;1.58;;;1.48;;
20154;SDS011;10238;49.556;10.956;2023-04-24T06:41:41;1.98;;;1.88;;
20154;SDS011;10238;49.556;10.956;2023-04-24T06:44:29;2.30;;;2.20;;
20154;SDS011;10238;49.556;10.956;2023-04-24T06:47:23;3.33;;;3.03;;
20154;SDS011;10238;49.556;10.956;2023-04-24T06:50:10;5.03;;;3.58;;
20154;SDS011;10238;49.556;10.956;2023-04-24T06:52:58;4.78;;;4.47;;
20154;SDS011;10238;49.556;10.956;2023-04-24T06:55:46;7.82;;;7.43;;
20154;SDS011;10238;49.556;10.956;2023-04-24T06:58:34;6.47;;;6.18;;
20154;SDS011;10238;49.556;10.956;2023-04-24T07:01:23;5.85;;;5.55;;
20154;SDS011;10238;49.556;10.956;2023-04-24T07:04:11;4.20;;;3.85;;
20154;SDS011;10238;49.556;10.956;2023-04-24T07:06:59;3.85;;;3.60;;
20154;SDS011;10238;49.556;10.956;2023-04-24T07:09:47;3.55;;;3.28;;
20154;SDS011;10238;49.556;10.956;2023-04-24T07:12:34;5.68;;;3.42;;
20154;SDS011;10238;49.556;10.956;2023-04-24T07:15:23;2.03;;;1.88;;
20154;SDS011;10238;49.556;10.956;2023-04-24T07:18:12;3.42;;;2.20;;
20154;SDS011;10238;49.556;10.956;2023-04-24T07:20:59;1.50;;;1.40;;
20154;SDS011;10238;49.556;10.956;2023-04-24T07:23:47;1.65;;;1.55;;
20154;SDS011;10238;49.556;10.956;2023-04-24T07:26:34;1.90;;;1.80;;
20154;SDS011;10238;49.556;10.956;2023-04-24T07:29:22;2.13;;;1.90;;
20154;SDS011;10238;49.556;10.956;2023-04-24T07:32:10;3.05;;;2.25;;
20154;SDS011;10238;49.556;10.956;2023-04-24T07:34:59;6.72;;;2.20;;
20154;SDS011;10238;49.556;10.956;2023-04-24T07:37:47;2.30;;;2.15;;
20154;SDS011;10238;49.556;10.956;2023-04-24T07:40:34;2.17;;;2.08;;
20154;SDS011;10238;49.556;10.956;2023-04-24T07:43:22;2.30;;;2.20;;
20154;SDS011;10238;49.556;10.956;2023-04-24T07:46:10;1.90;;;1.80;;
20154;SDS011;10238;49.556;10.956;2023-04-24T07:48:58;8.02;;;7.68;;
20154;SDS011;10238;49.556;10.956;2023-04-24T07:51:59;2.75;;;1.90;;
20154;SDS011;10238;49.556;10.956;2023-04-24T07:54:48;2.90;;;2.00;;
20154;SDS011;10238;49.556;10.956;2023-04-24T07:57:36;2.10;;;2.00;;
20154;SDS011;10238;49.556;10.956;2023-04-24T08:00:24;2.33;;;2.13;;
20154;SDS011;10238;49.556;10.956;2023-04-24T08:03:12;3.08;;;2.50;;
20154;SDS011;10238;49.556;10.956;2023-04-24T08:06:00;2.15;;;2.05;;
20154;SDS011;10238;49.556;10.956;2023-04-24T08:08:50;3.75;;;3.40;;
20154;SDS011;10238;49.556;10.956;2023-04-24T08:11:37;2.80;;;2.45;;
20154;SDS011;10238;49.556;10.956;2023-04-24T08:14:25;3.05;;;2.65;;
20154;SDS011;10238;49.556;10.956;2023-04-24T08:17:12;8.80;;;8.45;;
20154;SDS011;10238;49.556;10.956;2023-04-24T08:20:00;4.30;;;4.00;;
20154;SDS011;10238;49.556;10.956;2023-04-24T08:22:48;4.88;;;4.60;;
20154;SDS011;10238;49.556;10.956;2023-04-24T08:25:37;6.07;;;5.47;;
20154;SDS011;10238;49.556;10.956;2023-04-24T08:28:25;11.15;;;10.57;;
20154;SDS011;10238;49.556;10.956;2023-04-24T08:31:12;4.40;;;4.00;;
20154;SDS011;10238;49.556;10.956;2023-04-24T08:34:00;7.00;;;6.43;;
20154;SDS011;10238;49.556;10.956;2023-04-24T08:36:48;3.80;;;3.60;;
20154;SDS011;10238;49.556;10.956;2023-04-24T08:39:36;5.05;;;4.68;;
20154;SDS011;10238;49.556;10.956;2023-04-24T08:42:25;4.30;;;3.90;;
20154;SDS011;10238;49.556;10.956;2023-04-24T08:45:18;5.07;;;4.57;;
20154;SDS011;10238;49.556;10.956;2023-04-24T08:48:07;4.90;;;4.50;;
20154;SDS011;10238;49.556;10.956;2023-04-24T08:51:12;4.93;;;3.40;;
20154;SDS011;10238;49.556;10.956;2023-04-24T08:54:00;3.92;;;3.22;;
20154;SDS011;10238;49.556;10.956;2023-04-24T08:56:49;3.13;;;2.83;;
20154;SDS011;10238;49.556;10.956;2023-04-24T08:59:47;3.53;;;3.22;;
20154;SDS011;10238;49.556;10.956;2023-04-24T09:02:38;4.38;;;2.53;;
20154;SDS011;10238;49.556;10.956;2023-04-24T09:08:18;4.78;;;2.35;;
20154;SDS011;10238;49.556;10.956;2023-04-24T09:11:06;2.58;;;2.38;;
20154;SDS011;10238;49.556;10.956;2023-04-24T09:13:56;3.13;;;2.83;;
20154;SDS011;10238;49.556;10.956;2023-04-24T09:16:46;2.60;;;2.40;;
20154;SDS011;10238;49.556;10.956;2023-04-24T09:19:34;2.60;;;2.40;;
20154;SDS011;10238;49.556;10.956;2023-04-24T09:22:22;2.70;;;2.50;;
20154;SDS011;10238;49.556;10.956;2023-04-24T09:25:10;2.90;;;2.70;;
20154;SDS011;10238;49.556;10.956;2023-04-24T09:28:00;2.55;;;2.38;;
20154;SDS011;10238;49.556;10.956;2023-04-24T09:30:51;3.20;;;3.00;;
20154;SDS011;10238;49.556;10.956;2023-04-24T09:33:55;3.97;;;2.92;;
20154;SDS011;10238;49.556;10.956;2023-04-24T09:36:47;3.38;;;3.08;;
20154;SDS011;10238;49.556;10.956;2023-04-24T09:39:34;4.60;;;3.28;;
20154;SDS011;10238;49.556;10.956;2023-04-24T09:42:23;3.45;;;3.15;;
20154;SDS011;10238;49.556;10.956;2023-04-24T09:45:16;2.45;;;2.30;;
20154;SDS011;10238;49.556;10.956;2023-04-24T09:48:04;2.92;;;2.40;;
20154;SDS011;10238;49.556;10.956;2023-04-24T09:50:54;3.25;;;2.95;;
20154;SDS011;10238;49.556;10.956;2023-04-24T09:53:45;3.60;;;3.15;;
20154;SDS011;10238;49.556;10.956;2023-04-24T09:56:33;3.85;;;3.55;;
20154;SDS011;10238;49.556;10.956;2023-04-24T09:59:25;3.75;;;3.45;;
20154;SDS011;10238;49.556;10.956;2023-04-24T10:02:17;3.58;;;3.17;;
20154;SDS011;10238;49.556;10.956;2023-04-24T10:05:06;4.10;;;3.78;;
20154;SDS011;10238;49.556;10.956;2023-04-24T10:08:03;4.57;;;4.27;;
20154;SDS011;10238;49.556;10.956;2023-04-24T10:10:55;4.75;;;4.13;;
20154;SDS011;10238;49.556;10.956;2023-04-24T10:13:42;7.43;;;4.93;;
20154;SDS011;10238;49.556;10.956;2023-04-24T10:16:30;4.30;;;3.50;;
20154;SDS011;10238;49.556;10.956;2023-04-24T10:19:19;3.75;;;3.45;;
20154;SDS011;10238;49.556;10.956;2023-04-24T10:22:08;4.22;;;3.92;;
20154;SDS011;10238;49.556;10.956;2023-04-24T10:24:58;3.22;;;3.03;;
20154;SDS011;10238;49.556;10.956;2023-04-24T10:27:47;2.80;;;2.60;;
20154;SDS011;10238;49.556;10.956;2023-04-24T10:30:36;2.70;;;2.50;;
20154;SDS011;10238;49.556;10.956;2023-04-24T10:33:24;2.75;;;2.53;;
20154;SDS011;10238;49.556;10.956;2023-04-24T10:36:13;2.35;;;2.13;;
20154;SDS011;10238;49.556;10.956;2023-04-24T10:39:04;2.78;;;2.50;;
20154;SDS011;10238;49.556;10.956;2023-04-24T10:41:59;2.60;;;2.40;;
20154;SDS011;10238;49.556;10.956;2023-04-24T10:44:47;3.38;;;2.60;;
20154;SDS011;10238;49.556;10.956;2023-04-24T10:47:39;2.33;;;2.13;;
20154;SDS011;10238;49.556;10.956;2023-04-24T10:50:28;3.60;;;2.13;;
20154;SDS011;10238;49.556;10.956;2023-04-24T10:53:29;2.10;;;2.00;;
20154;SDS011;10238;49.556;10.956;2023-04-24T10:56:18;2.47;;;2.28;;
20154;SDS011;10238;49.556;10.956;2023-04-24T10:59:09;2.97;;;2.00;;
20154;SDS011;10238;49.556;10.956;2023-04-24T11:01:57;3.88;;;2.38;;
20154;SDS011;10238;49.556;10.956;2023-04-24T11:04:45;2.13;;;2.03;;
20154;SDS011;10238;49.556;10.956;2023-04-24T11:11:06;3.05;;;2.38;;
20154;SDS011;10238;49.556;10.956;2023-04-24T11:14:06;2.20;;;2.10;;
20154;SDS011;10238;49.556;10.956;2023-04-24T11:16:56;2.13;;;2.03;;
20154;SDS011;10238;49.556;10.956;2023-04-24T11:19:45;2.10;;;2.00;;
20154;SDS011;10238;49.556;10.956;2023-04-24T11:22:40;1.85;;;1.75;;
20154;SDS011;10238;49.556;10.956;2023-04-24T11:25:29;2.00;;;1.83;;
20154;SDS011;10238;49.556;10.956;2023-04-24T11:28:18;2.20;;;2.00;;
20154;SDS011;10238;49.556;10.956;2023-04-24T11:34:26;2.22;;;2.13;;
20154;SDS011;10238;49.556;10.956;2023-04-24T11:37:14;6.07;;;2.00;;
20154;SDS011;10238;49.556;10.956;2023-04-24T11:40:03;2.13;;;1.92;;
20154;SDS011;10238;49.556;10.956;2023-04-24T11:42:53;2.75;;;2.55;;
20154;SDS011;10238;49.556;10.956;2023-04-24T11:45:47;1.83;;;1.73;;
20154;SDS011;10238;49.556;10.956;2023-04-24T11:48:37;1.67;;;1.58;;
20154;SDS011;10238;49.556;10.956;2023-04-24T11:51:26;2.45;;;1.60;;
20154;SDS011;10238;49.556;10.956;2023-04-24T11:54:24;5.05;;;2.08;;
20154;SDS011;10238;49.556;10.956;2023-04-24T11:57:12;2.10;;;1.60;;
20154;SDS011;10238;49.556;10.956;2023-04-24T11:59:59;2.08;;;1.88;;
20154;SDS011;10238;49.556;10.956;2023-04-24T12:02:50;2.70;;;2.50;;
20154;SDS011;10238;49.556;10.956;2023-04-24T12:05:40;3.25;;;3.05;;
20154;SDS011;10238;49.556;10.956;2023-04-24T12:08:27;2.92;;;2.83;;
20154;SDS011;10238;49.556;10.956;2023-04-24T12:11:16;3.15;;;2.95;;
20154;SDS011;10238;49.556;10.956;2023-04-24T12:14:09;2.70;;;2.05;;
20154;SDS011;10238;49.556;10.956;2023-04-24T12:16:58;3.20;;;1.80;;
20154;SDS011;10238;49.556;10.956;2023-04-24T12:19:46;2.10;;;2.00;;
20154;SDS011;10238;49.556;10.956;2023-04-24T12:22:44;2.38;;;2.20;;
20154;SDS011;10238;49.556;10.956;2023-04-24T12:25:33;2.10;;;2.00;;
20154;SDS011;10238;49.556;10.956;2023-04-24T12:28:21;2.35;;;2.13;;
20154;SDS011;10238;49.556;10.956;2023-04-24T12:31:10;2.10;;;2.00;;
20154;SDS011;10238;49.556;10.956;2023-04-24T12:33:58;3.10;;;2.90;;
20154;SDS011;10238;49.556;10.956;2023-04-24T12:36:47;3.10;;;2.90;;
20154;SDS011;10238;49.556;10.956;2023-04-24T12:39:37;3.63;;;2.30;;
20154;SDS011;10238;49.556;10.956;2023-04-24T12:42:25;2.50;;;2.40;;
20154;SDS011;10238;49.556;10.956;2023-04-24T12:45:14;3.38;;;2.08;;
20154;SDS011;10238;49.556;10.956;2023-04-24T12:48:03;3.97;;;1.85;;
20154;SDS011;10238;49.556;10.956;2023-04-24T12:50:51;2.17;;;1.70;;
20154;SDS011;10238;49.556;10.956;2023-04-24T12:53:39;1.60;;;1.50;;
20154;SDS011;10238;49.556;10.956;2023-04-24T12:56:28;2.38;;;1.98;;
20154;SDS011;10238;49.556;10.956;2023-04-24T12:59:16;1.63;;;1.52;;
20154;SDS011;10238;49.556;10.956;2023-04-24T13:02:04;2.42;;;1.70;;
20154;SDS011;10238;49.556;10.956;2023-04-24T13:04:52;1.98;;;1.70;;
20154;SDS011;10238;49.556;10.956;2023-04-24T13:07:40;2.20;;;2.10;;
20154;SDS011;10238;49.556;10.956;2023-04-24T13:10:28;1.88;;;1.77;;
20154;SDS011;10238;49.556;10.956;2023-04-24T13:13:17;1.90;;;1.60;;
20154;SDS011;10238;49.556;10.956;2023-04-24T13:16:05;2.45;;;2.10;;
20154;SDS011;10238;49.556;10.956;2023-04-24T13:18:53;2.15;;;1.75;;
20154;SDS011;10238;49.556;10.956;2023-04-24T13:21:40;1.83;;;1.48;;
20154;SDS011;10238;49.556;10.956;2023-04-24T13:24:28;1.77;;;1.50;;
20154;SDS011;10238;49.556;10.956;2023-04-24T13:27:16;2.25;;;1.80;;
20154;SDS011;10238;49.556;10.956;2023-04-24T13:30:09;1.80;;;1.70;;
20154;SDS011;10238;49.556;10.956;2023-04-24T13:32:58;2.25;;;1.77;;
20154;SDS011;10238;49.556;10.956;2023-04-24T13:35:46;2.00;;;1.77;;
20154;SDS011;10238;49.556;10.956;2023-04-24T13:38:34;6.22;;;2.22;;
20154;SDS011;10238;49.556;10.956;2023-04-24T13:41:22;2.30;;;2.00;;
20154;SDS011;10238;49.556;10.956;2023-04-24T13:44:09;2.85;;;2.15;;
20154;SDS011;10238;49.556;10.956;2023-04-24T13:46:58;2.67;;;2.05;;
20154;SDS011;10238;49.556;10.956;2023-04-24T13:49:46;2.40;;;1.98;;
20154;SDS011;10238;49.556;10.956;2023-04-24T13:52:33;2.30;;;1.73;;
20154;SDS011;10238;49.556;10.956;2023-04-24T13:55:21;1.70;;;1.60;;
20154;SDS011;10238;49.556;10.956;2023-04-24T13:58:09;1.90;;;1.77;;
20154;SDS011;10238;49.556;10.956;2023-04-24T14:00:57;2.15;;;2.05;;
20154;SDS011;10238;49.556;10.956;2023-04-24T14:03:46;2.08;;;1.83;;
20154;SDS011;10238;49.556;10.956;2023-04-24T14:06:34;2.92;;;1.70;;
20154;SDS011;10238;49.556;10.956;2023-04-24T14:09:22;1.90;;;1.80;;
20154;SDS011;10238;49.556;10.956;2023-04-24T14:12:10;2.05;;;1.95;;
20154;SDS011;10238;49.556;10.956;2023-04-24T14:14:58;2.20;;;2.10;;
20154;SDS011;10238;49.556;10.956;2023-04-24T14:17:47;2.40;;;2.30;;
20154;SDS011;10238;49.556;10.956;2023-04-24T14:20:37;2.20;;;2.10;;
20154;SDS011;10238;49.556;10.956;2023-04-24T14:23:24;2.38;;;2.28;;
20154;SDS011;10238;49.556;10.956;2023-04-24T14:26:12;3.15;;;2.78;;
20154;SDS011;10238;49.556;10.956;2023-04-24T14:29:00;2.42;;;2.28;;
20154;SDS011;10238;49.556;10.956;2023-04-24T14:31:59;3.45;;;3.25;;
20154;SDS011;10238;49.556;10.956;2023-04-24T14:34:47;3.80;;;3.60;;
20154;SDS011;10238;49.556;10.956;2023-04-24T14:37:36;3.05;;;2.88;;
20154;SDS011;10238;49.556;10.956;2023-04-24T14:40:27;3.53;;;3.20;;
20154;SDS011;10238;49.556;10.956;2023-04-24T14:43:36;2.10;;;2.00;;
20154;SDS011;10238;49.556;10.956;2023-04-24T14:46:24;1.90;;;1.80;;
20154;SDS011;10238;49.556;10.956;2023-04-24T14:49:12;2.28;;;2.17;;
20154;SDS011;10238;49.556;10.956;2023-04-24T14:52:05;2.30;;;1.98;;
20154;SDS011;10238;49.556;10.956;2023-04-24T14:54:54;2.47;;;2.28;;
20154;SDS011;10238;49.556;10.956;2023-04-24T14:57:41;3.05;;;2.85;;
20154;SDS011;10238;49.556;10.956;2023-04-24T15:00:30;2.42;;;2.20;;
20154;SDS011;10238;49.556;10.956;2023-04-24T15:03:20;3.53;;;1.90;;
20154;SDS011;10238;49.556;10.956;2023-04-24T15:06:08;2.42;;;2.22;;
20154;SDS011;10238;49.556;10.956;2023-04-24T15:08:56;2.63;;;2.53;;
20154;SDS011;10238;49.556;10.956;2023-04-24T15:11:45;2.67;;;2.58;;
20154;SDS011;10238;49.556;10.956;2023-04-24T15:14:33;2.95;;;2.67;;
20154;SDS011;10238;49.556;10.956;2023-04-24T15:17:21;2.80;;;2.60;;
20154;SDS011;10238;49.556;10.956;2023-04-24T15:20:08;2.83;;;2.47;;
20154;SDS011;10238;49.556;10.956;2023-04-24T15:22:56;3.45;;;3.15;;
20154;SDS011;10238;49.556;10.956;2023-04-24T15:25:45;2.78;;;2.58;;
20154;SDS011;10238;49.556;10.956;2023-04-24T15:28:34;2.50;;;2.40;;
20154;SDS011;10238;49.556;10.956;2023-04-24T15:31:22;3.35;;;2.88;;
20154;SDS011;10238;49.556;10.956;2023-04-24T15:34:09;3.08;;;2.65;;
20154;SDS011;10238;49.556;10.956;2023-04-24T15:36:57;4.15;;;2.85;;
20154;SDS011;10238;49.556;10.956;2023-04-24T15:39:45;3.33;;;3.13;;
20154;SDS011;10238;49.556;10.956;2023-04-24T15:42:33;2.92;;;2.72;;
20154;SDS011;10238;49.556;10.956;2023-04-24T15:45:23;2.58;;;2.47;;
20154;SDS011;10238;49.556;10.956;2023-04-24T15:48:11;2.60;;;2.50;;
20154;SDS011;10238;49.556;10.956;2023-04-24T15:50:58;2.60;;;2.50;;
20154;SDS011;10238;49.556;10.956;2023-04-24T15:53:46;3.05;;;2.95;;
20154;SDS011;10238;49.556;10.956;2023-04-24T15:56:34;3.53;;;3.22;;
20154;SDS011;10238;49.556;10.956;2023-04-24T15:59:22;3.95;;;3.42;;
20154;SDS011;10238;49.556;10.956;2023-04-24T16:02:12;3.30;;;3.08;;
20154;SDS011;10238;49.556;10.956;2023-04-24T16:05:04;4.28;;;2.92;;
20154;SDS011;10238;49.556;10.956;2023-04-24T16:07:53;3.58;;;2.75;;
20154;SDS011;10238;49.556;10.956;2023-04-24T16:10:42;3.80;;;3.50;;
20154;SDS011;10238;49.556;10.956;2023-04-24T16:13:37;3.00;;;2.80;;
20154;SDS011;10238;49.556;10.956;2023-04-24T16:16:25;2.63;;;2.42;;
20154;SDS011;10238;49.556;10.956;2023-04-24T16:19:15;3.90;;;3.60;;
20154;SDS011;10238;49.556;10.956;2023-04-24T16:22:04;2.45;;;2.25;;
20154;SDS011;10238;49.556;10.956;2023-04-24T16:24:51;2.70;;;2.50;;
20154;SDS011;10238;49.556;10.956;2023-04-24T16:27:39;5.47;;;3.25;;
20154;SDS011;10238;49.556;10.956;2023-04-24T16:30:27;3.10;;;2.78;;
20154;SDS011;10238;49.556;10.956;2023-04-24T16:33:15;3.03;;;2.83;;
20154;SDS011;10238;49.556;10.956;2023-04-24T16:36:04;7.07;;;3.35;;
20154;SDS011;10238;49.556;10.956;2023-04-24T16:38:53;2.97;;;2.78;;
20154;SDS011;10238;49.556;10.956;2023-04-24T16:41:41;3.38;;;3.08;;
20154;SDS011;10238;49.556;10.956;2023-04-24T16:44:31;3.60;;;3.30;;
20154;SDS011;10238;49.556;10.956;2023-04-24T16:47:19;3.40;;;3.10;;
20154;SDS011;10238;49.556;10.956;2023-04-24T16:50:09;2.83;;;2.60;;